PLI204 SPQU-SPJC
Flight info
| Callsign | PLI204 |
|---|---|
| Flight time | 1h 19m |
| Altitude | 40000 |
| Route | SIME1F VUPKO UT323 SCO ESEDI3 |
| Aircraft | B732/M-SDE2E3FGHIRWXY/LB1 |
Departure
| Time | 2026-04-16 05:17 |
|---|---|
| Airport | Rodríguez Ballón International Airport (SPQU) |
Arrival
| Time | 2026-04-16 06:36 |
|---|---|
| Airport | Jorge Chávez International Airport (SPJC) |
| Time | Latitude | Longitude | Altitude | Speed | Heading |
|---|---|---|---|---|---|
| 2026-04-16 05:08 | -16.34396 | -71.56721 | 8343 ft | 0 kts | 217° |
| 2026-04-16 05:09 | -16.34389 | -71.56716 | 8343 ft | 4 kts | 213° |
| 2026-04-16 05:09 | -16.34365 | -71.56706 | 8343 ft | 4 kts | 168° |
| 2026-04-16 05:09 | -16.34350 | -71.56719 | 8347 ft | 1 kts | 93° |
| 2026-04-16 05:09 | -16.34350 | -71.56720 | 8347 ft | 0 kts | 93° |
| 2026-04-16 05:12 | -16.34351 | -71.56715 | 8348 ft | 3 kts | 93° |
| 2026-04-16 05:12 | -16.34352 | -71.56684 | 8346 ft | 7 kts | 93° |
| 2026-04-16 05:12 | -16.34355 | -71.56620 | 8344 ft | 11 kts | 93° |
| 2026-04-16 05:12 | -16.34360 | -71.56526 | 8344 ft | 14 kts | 93° |
| 2026-04-16 05:13 | -16.34366 | -71.56420 | 8349 ft | 15 kts | 93° |
| 2026-04-16 05:13 | -16.34371 | -71.56306 | 8359 ft | 16 kts | 93° |
| 2026-04-16 05:13 | -16.34378 | -71.56190 | 8370 ft | 16 kts | 93° |
| 2026-04-16 05:13 | -16.34376 | -71.56074 | 8378 ft | 16 kts | 70° |
| 2026-04-16 05:14 | -16.34312 | -71.55967 | 8388 ft | 18 kts | 55° |
| 2026-04-16 05:14 | -16.34245 | -71.55863 | 8401 ft | 17 kts | 60° |
| 2026-04-16 05:14 | -16.34187 | -71.55758 | 8412 ft | 16 kts | 57° |
| 2026-04-16 05:14 | -16.34132 | -71.55739 | 8413 ft | 1 kts | 295° |
| 2026-04-16 05:15 | -16.34128 | -71.55767 | 8412 ft | 1 kts | 272° |
| 2026-04-16 05:16 | -16.34126 | -71.55814 | 8412 ft | 25 kts | 274° |
| 2026-04-16 05:16 | -16.34103 | -71.56238 | 8408 ft | 92 kts | 273° |
| 2026-04-16 05:16 | -16.34058 | -71.57118 | 8368 ft | 149 kts | 273° |
| 2026-04-16 05:16 | -16.33994 | -71.58336 | 8484 ft | 181 kts | 274° |
| 2026-04-16 05:17 | -16.33911 | -71.59679 | 9089 ft | 187 kts | 275° |
| 2026-04-16 05:17 | -16.33837 | -71.60986 | 10008 ft | 174 kts | 273° |
| 2026-04-16 05:17 | -16.33942 | -71.62251 | 10730 ft | 180 kts | 250° |
| 2026-04-16 05:17 | -16.34308 | -71.63599 | 11067 ft | 212 kts | 265° |
| 2026-04-16 05:18 | -16.34387 | -71.65230 | 11325 ft | 241 kts | 268° |
| 2026-04-16 05:18 | -16.34473 | -71.67095 | 11529 ft | 275 kts | 267° |
| 2026-04-16 05:18 | -16.34484 | -71.69199 | 11919 ft | 301 kts | 277° |
| 2026-04-16 05:18 | -16.34098 | -71.71344 | 12782 ft | 308 kts | 283° |
| 2026-04-16 05:19 | -16.33560 | -71.73543 | 13796 ft | 311 kts | 285° |
| 2026-04-16 05:19 | -16.33003 | -71.75703 | 14692 ft | 315 kts | 285° |
| 2026-04-16 05:19 | -16.32436 | -71.77914 | 15622 ft | 317 kts | 285° |
| 2026-04-16 05:19 | -16.31876 | -71.80146 | 16554 ft | 321 kts | 285° |
| 2026-04-16 05:20 | -16.31318 | -71.82419 | 17439 ft | 326 kts | 284° |
| 2026-04-16 05:20 | -16.30762 | -71.84719 | 18324 ft | 330 kts | 284° |
| 2026-04-16 05:20 | -16.30199 | -71.87072 | 18913 ft | 344 kts | 284° |
| 2026-04-16 05:20 | -16.29604 | -71.89572 | 19127 ft | 366 kts | 284° |
| 2026-04-16 05:21 | -16.28989 | -71.92176 | 19698 ft | 373 kts | 284° |
| 2026-04-16 05:21 | -16.28370 | -71.94808 | 20486 ft | 374 kts | 284° |
| 2026-04-16 05:21 | -16.27751 | -71.97441 | 21304 ft | 376 kts | 284° |
| 2026-04-16 05:21 | -16.27126 | -72.00102 | 22036 ft | 380 kts | 284° |
| 2026-04-16 05:22 | -16.26494 | -72.02788 | 22746 ft | 384 kts | 284° |
| 2026-04-16 05:22 | -16.25855 | -72.05506 | 23465 ft | 387 kts | 284° |
| 2026-04-16 05:22 | -16.25213 | -72.08236 | 24087 ft | 391 kts | 284° |
| 2026-04-16 05:22 | -16.24562 | -72.11000 | 24665 ft | 394 kts | 284° |
| 2026-04-16 05:23 | -16.23906 | -72.13782 | 25261 ft | 397 kts | 283° |
| 2026-04-16 05:23 | -16.23253 | -72.16552 | 25836 ft | 400 kts | 283° |
| 2026-04-16 05:23 | -16.22588 | -72.19373 | 26401 ft | 403 kts | 283° |
| 2026-04-16 05:23 | -16.21917 | -72.22215 | 26963 ft | 407 kts | 283° |
| 2026-04-16 05:24 | -16.21239 | -72.25088 | 27528 ft | 410 kts | 283° |
| 2026-04-16 05:24 | -16.20555 | -72.27979 | 28075 ft | 413 kts | 283° |
| 2026-04-16 05:24 | -16.19865 | -72.30898 | 28623 ft | 417 kts | 283° |
| 2026-04-16 05:24 | -16.19170 | -72.33835 | 29144 ft | 420 kts | 283° |
| 2026-04-16 05:25 | -16.18468 | -72.36800 | 29669 ft | 423 kts | 283° |
| 2026-04-16 05:25 | -16.17759 | -72.39788 | 30177 ft | 427 kts | 283° |
| 2026-04-16 05:25 | -16.17044 | -72.42805 | 30612 ft | 430 kts | 283° |
| 2026-04-16 05:25 | -16.16328 | -72.45823 | 31121 ft | 430 kts | 284° |
| 2026-04-16 05:26 | -16.15609 | -72.48847 | 31725 ft | 428 kts | 284° |
| 2026-04-16 05:26 | -16.14912 | -72.51783 | 32472 ft | 421 kts | 284° |
| 2026-04-16 05:26 | -16.14208 | -72.54743 | 33281 ft | 416 kts | 284° |
| 2026-04-16 05:26 | -16.13514 | -72.57661 | 34014 ft | 412 kts | 284° |
| 2026-04-16 05:27 | -16.12836 | -72.60507 | 34587 ft | 409 kts | 285° |
| 2026-04-16 05:27 | -16.12152 | -72.63379 | 35077 ft | 409 kts | 285° |
| 2026-04-16 05:27 | -16.11468 | -72.66247 | 35541 ft | 408 kts | 285° |
| 2026-04-16 05:27 | -16.10787 | -72.69103 | 36070 ft | 406 kts | 285° |
| 2026-04-16 05:28 | -16.10111 | -72.71936 | 36622 ft | 403 kts | 285° |
| 2026-04-16 05:28 | -16.09441 | -72.74744 | 37107 ft | 402 kts | 286° |
| 2026-04-16 05:28 | -16.08764 | -72.77575 | 37525 ft | 401 kts | 286° |
| 2026-04-16 05:28 | -16.08090 | -72.80394 | 37971 ft | 400 kts | 286° |
| 2026-04-16 05:29 | -16.07422 | -72.83188 | 38457 ft | 398 kts | 286° |
| 2026-04-16 05:29 | -16.06755 | -72.85974 | 38871 ft | 397 kts | 286° |
| 2026-04-16 05:29 | -16.06087 | -72.88763 | 39188 ft | 397 kts | 286° |
| 2026-04-16 05:29 | -16.05347 | -72.91529 | 39453 ft | 396 kts | 292° |
| 2026-04-16 05:30 | -16.04264 | -72.94152 | 39738 ft | 395 kts | 299° |
| 2026-04-16 05:30 | -16.02830 | -72.96580 | 40048 ft | 394 kts | 306° |
| 2026-04-16 05:30 | -16.01226 | -72.98919 | 40041 ft | 398 kts | 306° |
| 2026-04-16 05:31 | -15.97969 | -73.03559 | 40056 ft | 395 kts | 307° |
| 2026-04-16 05:31 | -15.94761 | -73.08145 | 40061 ft | 391 kts | 307° |
| 2026-04-16 05:32 | -15.91596 | -73.12701 | 40049 ft | 390 kts | 306° |
| 2026-04-16 05:32 | -15.88420 | -73.17288 | 40059 ft | 390 kts | 306° |
| 2026-04-16 05:33 | -15.85244 | -73.21877 | 40062 ft | 391 kts | 306° |
| 2026-04-16 05:33 | -15.82065 | -73.26468 | 40058 ft | 391 kts | 306° |
| 2026-04-16 05:34 | -15.78886 | -73.31055 | 40065 ft | 392 kts | 306° |
| 2026-04-16 05:34 | -15.75702 | -73.35647 | 40076 ft | 393 kts | 306° |
| 2026-04-16 05:35 | -15.72501 | -73.40260 | 40065 ft | 394 kts | 306° |
| 2026-04-16 05:35 | -15.69321 | -73.44841 | 40079 ft | 393 kts | 307° |
| 2026-04-16 05:36 | -15.66117 | -73.49453 | 40081 ft | 394 kts | 307° |
| 2026-04-16 05:36 | -15.62911 | -73.54064 | 40087 ft | 394 kts | 307° |
| 2026-04-16 05:37 | -15.59697 | -73.58685 | 40087 ft | 394 kts | 307° |
| 2026-04-16 05:37 | -15.56486 | -73.63298 | 40092 ft | 394 kts | 307° |
| 2026-04-16 05:38 | -15.53274 | -73.67910 | 40104 ft | 394 kts | 307° |
| 2026-04-16 05:38 | -15.50061 | -73.72521 | 40100 ft | 395 kts | 307° |
| 2026-04-16 05:39 | -15.46857 | -73.77117 | 40096 ft | 396 kts | 307° |
| 2026-04-16 05:39 | -15.43624 | -73.81751 | 40085 ft | 396 kts | 307° |
| 2026-04-16 05:40 | -15.40392 | -73.86379 | 40073 ft | 395 kts | 307° |
| 2026-04-16 05:40 | -15.37178 | -73.90982 | 40077 ft | 393 kts | 307° |
| 2026-04-16 05:41 | -15.34514 | -73.94793 | 40086 ft | 392 kts | 307° |
| 2026-04-16 05:41 | -15.30791 | -74.00118 | 40070 ft | 392 kts | 307° |
| 2026-04-16 05:42 | -15.28109 | -74.03950 | 40064 ft | 392 kts | 307° |
| 2026-04-16 05:42 | -15.24912 | -74.08512 | 40062 ft | 393 kts | 307° |
| 2026-04-16 05:43 | -15.21700 | -74.13100 | 40056 ft | 393 kts | 307° |
| 2026-04-16 05:43 | -15.18491 | -74.17680 | 40054 ft | 393 kts | 307° |
| 2026-04-16 05:44 | -15.15305 | -74.22224 | 40057 ft | 391 kts | 307° |
| 2026-04-16 05:44 | -15.12106 | -74.26782 | 40038 ft | 391 kts | 307° |
| 2026-04-16 05:45 | -15.08909 | -74.31337 | 40048 ft | 391 kts | 307° |
| 2026-04-16 05:45 | -15.05699 | -74.35905 | 40040 ft | 393 kts | 307° |
| 2026-04-16 05:46 | -15.02484 | -74.40476 | 40019 ft | 392 kts | 307° |
| 2026-04-16 05:46 | -14.99295 | -74.45006 | 40048 ft | 392 kts | 307° |
| 2026-04-16 05:47 | -14.96083 | -74.49570 | 40044 ft | 392 kts | 307° |
| 2026-04-16 05:47 | -14.92864 | -74.54141 | 40042 ft | 394 kts | 307° |
| 2026-04-16 05:48 | -14.89631 | -74.58729 | 40028 ft | 395 kts | 306° |
| 2026-04-16 05:48 | -14.86391 | -74.63326 | 40040 ft | 396 kts | 306° |
| 2026-04-16 05:49 | -14.83142 | -74.67932 | 40027 ft | 397 kts | 307° |
| 2026-04-16 05:49 | -14.79882 | -74.72551 | 40027 ft | 398 kts | 307° |
| 2026-04-16 05:50 | -14.76636 | -74.77147 | 40017 ft | 398 kts | 307° |
| 2026-04-16 05:50 | -14.73353 | -74.81793 | 39998 ft | 399 kts | 306° |
| 2026-04-16 05:51 | -14.70086 | -74.86415 | 40000 ft | 398 kts | 306° |
| 2026-04-16 05:51 | -14.66823 | -74.91027 | 40004 ft | 397 kts | 307° |
| 2026-04-16 05:52 | -14.63585 | -74.95600 | 39990 ft | 397 kts | 306° |
| 2026-04-16 05:52 | -14.60326 | -75.00201 | 39985 ft | 396 kts | 306° |
| 2026-04-16 05:53 | -14.57073 | -75.04792 | 39982 ft | 396 kts | 306° |
| 2026-04-16 05:53 | -14.53824 | -75.09373 | 39984 ft | 395 kts | 306° |
| 2026-04-16 05:54 | -14.50576 | -75.13951 | 39988 ft | 395 kts | 306° |
| 2026-04-16 05:54 | -14.47324 | -75.18533 | 39983 ft | 395 kts | 306° |
| 2026-04-16 05:55 | -14.44092 | -75.23083 | 39983 ft | 395 kts | 306° |
| 2026-04-16 05:55 | -14.40836 | -75.27665 | 39980 ft | 395 kts | 306° |
| 2026-04-16 05:56 | -14.37579 | -75.32244 | 39980 ft | 395 kts | 306° |
| 2026-04-16 05:56 | -14.34353 | -75.36779 | 39985 ft | 395 kts | 306° |
| 2026-04-16 05:57 | -14.31097 | -75.41352 | 39977 ft | 395 kts | 306° |
| 2026-04-16 05:57 | -14.27838 | -75.45929 | 39983 ft | 395 kts | 306° |
| 2026-04-16 05:58 | -14.24576 | -75.50505 | 39978 ft | 396 kts | 306° |
| 2026-04-16 05:58 | -14.21313 | -75.55082 | 39976 ft | 396 kts | 306° |
| 2026-04-16 05:59 | -14.18067 | -75.59631 | 39977 ft | 396 kts | 306° |
| 2026-04-16 05:59 | -14.14799 | -75.64209 | 39974 ft | 396 kts | 306° |
| 2026-04-16 06:00 | -14.11530 | -75.68787 | 39973 ft | 396 kts | 306° |
| 2026-04-16 06:00 | -14.08256 | -75.73368 | 39973 ft | 396 kts | 306° |
| 2026-04-16 06:01 | -14.05009 | -75.77908 | 39970 ft | 396 kts | 306° |
| 2026-04-16 06:01 | -14.01723 | -75.82502 | 39965 ft | 397 kts | 306° |
| 2026-04-16 06:02 | -13.96833 | -75.89333 | 39967 ft | 397 kts | 306° |
| 2026-04-16 06:02 | -13.93548 | -75.93918 | 39967 ft | 397 kts | 306° |
| 2026-04-16 06:03 | -13.90270 | -75.98492 | 39954 ft | 397 kts | 306° |
| 2026-04-16 06:03 | -13.86983 | -76.03076 | 39952 ft | 397 kts | 306° |
| 2026-04-16 06:04 | -13.83720 | -76.07624 | 39946 ft | 398 kts | 306° |
| 2026-04-16 06:04 | -13.80425 | -76.12215 | 39940 ft | 398 kts | 306° |
| 2026-04-16 06:05 | -13.77129 | -76.16804 | 39939 ft | 398 kts | 306° |
| 2026-04-16 06:05 | -13.73725 | -76.21284 | 39924 ft | 398 kts | 317° |
| 2026-04-16 06:06 | -13.69180 | -76.24486 | 39941 ft | 399 kts | 327° |
| 2026-04-16 06:06 | -13.64427 | -76.27439 | 39942 ft | 399 kts | 327° |
| 2026-04-16 06:07 | -13.59662 | -76.30419 | 39914 ft | 400 kts | 327° |
| 2026-04-16 06:07 | -13.57278 | -76.31926 | 39468 ft | 403 kts | 327° |
| 2026-04-16 06:07 | -13.54898 | -76.33438 | 38916 ft | 403 kts | 326° |
| 2026-04-16 06:08 | -13.52517 | -76.34954 | 38334 ft | 402 kts | 326° |
| 2026-04-16 06:08 | -13.50134 | -76.36474 | 37672 ft | 403 kts | 327° |
| 2026-04-16 06:08 | -13.47748 | -76.37996 | 37044 ft | 403 kts | 327° |
| 2026-04-16 06:08 | -13.45394 | -76.39498 | 36436 ft | 403 kts | 327° |
| 2026-04-16 06:09 | -13.43012 | -76.41017 | 35842 ft | 403 kts | 327° |
| 2026-04-16 06:09 | -13.40639 | -76.42531 | 35376 ft | 400 kts | 327° |
| 2026-04-16 06:09 | -13.38281 | -76.44034 | 34885 ft | 398 kts | 327° |
| 2026-04-16 06:09 | -13.35928 | -76.45533 | 34406 ft | 396 kts | 327° |
| 2026-04-16 06:10 | -13.33585 | -76.47025 | 33923 ft | 395 kts | 327° |
| 2026-04-16 06:10 | -13.31247 | -76.48514 | 33396 ft | 393 kts | 327° |
| 2026-04-16 06:10 | -13.28928 | -76.49991 | 32932 ft | 391 kts | 327° |
| 2026-04-16 06:10 | -13.26618 | -76.51462 | 32466 ft | 388 kts | 327° |
| 2026-04-16 06:11 | -13.24356 | -76.52902 | 32018 ft | 386 kts | 327° |
| 2026-04-16 06:11 | -13.22077 | -76.54352 | 31580 ft | 384 kts | 327° |
| 2026-04-16 06:11 | -13.19806 | -76.55797 | 31142 ft | 382 kts | 327° |
| 2026-04-16 06:11 | -13.17539 | -76.57239 | 30692 ft | 381 kts | 327° |
| 2026-04-16 06:12 | -13.15290 | -76.58669 | 30250 ft | 381 kts | 327° |
| 2026-04-16 06:12 | -13.13039 | -76.60100 | 29779 ft | 379 kts | 327° |
| 2026-04-16 06:12 | -13.10803 | -76.61522 | 29306 ft | 377 kts | 327° |
| 2026-04-16 06:12 | -13.08582 | -76.62933 | 28839 ft | 374 kts | 328° |
| 2026-04-16 06:13 | -13.06375 | -76.64336 | 28381 ft | 371 kts | 328° |
| 2026-04-16 06:13 | -13.04187 | -76.65726 | 27942 ft | 369 kts | 328° |
| 2026-04-16 06:13 | -13.02011 | -76.67108 | 27505 ft | 366 kts | 328° |
| 2026-04-16 06:13 | -12.99855 | -76.68477 | 27072 ft | 364 kts | 328° |
| 2026-04-16 06:14 | -12.97729 | -76.69827 | 26652 ft | 362 kts | 328° |
| 2026-04-16 06:14 | -12.95595 | -76.71182 | 26224 ft | 360 kts | 328° |
| 2026-04-16 06:14 | -12.93463 | -76.72535 | 25802 ft | 358 kts | 328° |
| 2026-04-16 06:14 | -12.91345 | -76.73879 | 25384 ft | 357 kts | 329° |
| 2026-04-16 06:15 | -12.89234 | -76.75218 | 24949 ft | 356 kts | 329° |
| 2026-04-16 06:15 | -12.87128 | -76.76554 | 24529 ft | 355 kts | 329° |
| 2026-04-16 06:15 | -12.85025 | -76.77887 | 24114 ft | 354 kts | 329° |
| 2026-04-16 06:15 | -12.82931 | -76.79215 | 23689 ft | 354 kts | 329° |
| 2026-04-16 06:16 | -12.80843 | -76.80538 | 23221 ft | 353 kts | 329° |
| 2026-04-16 06:16 | -12.78761 | -76.81857 | 22784 ft | 351 kts | 329° |
| 2026-04-16 06:16 | -12.76716 | -76.83153 | 22351 ft | 348 kts | 329° |
| 2026-04-16 06:16 | -12.74664 | -76.84453 | 21927 ft | 345 kts | 329° |
| 2026-04-16 06:17 | -12.72623 | -76.85746 | 21518 ft | 343 kts | 329° |
| 2026-04-16 06:17 | -12.70601 | -76.87026 | 21115 ft | 341 kts | 329° |
| 2026-04-16 06:17 | -12.68588 | -76.88301 | 20712 ft | 339 kts | 329° |
| 2026-04-16 06:17 | -12.66587 | -76.89568 | 20313 ft | 337 kts | 328° |
| 2026-04-16 06:18 | -12.64600 | -76.90826 | 19916 ft | 335 kts | 328° |
| 2026-04-16 06:18 | -12.62643 | -76.92064 | 19517 ft | 333 kts | 328° |
| 2026-04-16 06:18 | -12.60674 | -76.93310 | 19112 ft | 332 kts | 328° |
| 2026-04-16 06:18 | -12.58707 | -76.94554 | 18703 ft | 332 kts | 328° |
| 2026-04-16 06:19 | -12.56724 | -76.95750 | 18301 ft | 331 kts | 331° |
| 2026-04-16 06:19 | -12.54672 | -76.96811 | 17856 ft | 330 kts | 334° |
| 2026-04-16 06:19 | -12.52607 | -76.97818 | 17438 ft | 328 kts | 334° |
| 2026-04-16 06:19 | -12.50554 | -76.98809 | 17029 ft | 325 kts | 334° |
| 2026-04-16 06:20 | -12.48515 | -76.99798 | 16630 ft | 323 kts | 334° |
| 2026-04-16 06:20 | -12.46488 | -77.00789 | 16239 ft | 321 kts | 334° |
| 2026-04-16 06:20 | -12.44481 | -77.01776 | 15849 ft | 319 kts | 334° |
| 2026-04-16 06:20 | -12.42515 | -77.02748 | 15469 ft | 317 kts | 334° |
| 2026-04-16 06:21 | -12.40528 | -77.03732 | 15083 ft | 316 kts | 334° |
| 2026-04-16 06:21 | -12.38553 | -77.04712 | 14694 ft | 315 kts | 334° |
| 2026-04-16 06:21 | -12.36588 | -77.05687 | 14294 ft | 314 kts | 334° |
| 2026-04-16 06:21 | -12.34625 | -77.06662 | 13904 ft | 313 kts | 334° |
| 2026-04-16 06:22 | -12.32663 | -77.07636 | 13488 ft | 312 kts | 334° |
| 2026-04-16 06:22 | -12.30715 | -77.08604 | 13078 ft | 310 kts | 334° |
| 2026-04-16 06:22 | -12.28773 | -77.09568 | 12686 ft | 308 kts | 334° |
| 2026-04-16 06:22 | -12.26845 | -77.10526 | 12296 ft | 306 kts | 334° |
| 2026-04-16 06:23 | -12.24959 | -77.11462 | 11920 ft | 304 kts | 334° |
| 2026-04-16 06:23 | -12.23058 | -77.12406 | 11538 ft | 302 kts | 334° |
| 2026-04-16 06:23 | -12.21172 | -77.13342 | 11164 ft | 301 kts | 334° |
| 2026-04-16 06:23 | -12.19289 | -77.14276 | 10791 ft | 299 kts | 334° |
| 2026-04-16 06:24 | -12.17418 | -77.15205 | 10402 ft | 298 kts | 334° |
| 2026-04-16 06:24 | -12.15557 | -77.16129 | 10081 ft | 295 kts | 334° |
| 2026-04-16 06:24 | -12.13738 | -77.17031 | 9818 ft | 290 kts | 334° |
| 2026-04-16 06:24 | -12.11930 | -77.17927 | 9515 ft | 286 kts | 334° |
| 2026-04-16 06:25 | -12.10196 | -77.18787 | 9401 ft | 275 kts | 334° |
| 2026-04-16 06:25 | -12.08486 | -77.19635 | 9115 ft | 272 kts | 334° |
| 2026-04-16 06:25 | -12.06789 | -77.20477 | 8804 ft | 270 kts | 334° |
| 2026-04-16 06:25 | -12.05100 | -77.21314 | 8498 ft | 268 kts | 334° |
| 2026-04-16 06:26 | -12.03431 | -77.22142 | 8195 ft | 266 kts | 334° |
| 2026-04-16 06:26 | -12.01770 | -77.22965 | 7893 ft | 264 kts | 334° |
| 2026-04-16 06:26 | -12.00129 | -77.23806 | 7593 ft | 263 kts | 333° |
| 2026-04-16 06:26 | -11.98506 | -77.24656 | 7289 ft | 261 kts | 333° |
| 2026-04-16 06:27 | -11.96892 | -77.25502 | 6993 ft | 260 kts | 333° |
| 2026-04-16 06:27 | -11.95284 | -77.26342 | 6701 ft | 259 kts | 333° |
| 2026-04-16 06:27 | -11.93704 | -77.27166 | 6400 ft | 258 kts | 333° |
| 2026-04-16 06:27 | -11.92108 | -77.27993 | 6078 ft | 256 kts | 333° |
| 2026-04-16 06:28 | -11.90504 | -77.28788 | 5767 ft | 255 kts | 334° |
| 2026-04-16 06:28 | -11.88907 | -77.29570 | 5459 ft | 254 kts | 334° |
| 2026-04-16 06:28 | -11.87319 | -77.30346 | 5162 ft | 252 kts | 335° |
| 2026-04-16 06:28 | -11.85613 | -77.30686 | 4842 ft | 252 kts | 4° |
| 2026-04-16 06:29 | -11.83959 | -77.30132 | 4555 ft | 253 kts | 32° |
| 2026-04-16 06:29 | -11.82737 | -77.28880 | 4388 ft | 247 kts | 56° |
| 2026-04-16 06:29 | -11.81933 | -77.27364 | 4265 ft | 239 kts | 63° |
| 2026-04-16 06:29 | -11.81233 | -77.25849 | 4148 ft | 232 kts | 64° |
| 2026-04-16 06:30 | -11.80694 | -77.24332 | 4018 ft | 226 kts | 85° |
| 2026-04-16 06:30 | -11.81081 | -77.22868 | 3880 ft | 213 kts | 128° |
| 2026-04-16 06:30 | -11.82252 | -77.22076 | 3622 ft | 200 kts | 163° |
| 2026-04-16 06:30 | -11.83536 | -77.21675 | 3407 ft | 187 kts | 161° |
| 2026-04-16 06:31 | -11.84722 | -77.21215 | 3199 ft | 179 kts | 157° |
| 2026-04-16 06:31 | -11.85487 | -77.20871 | 3067 ft | 177 kts | 155° |
| 2026-04-16 06:31 | -11.86614 | -77.20335 | 2891 ft | 179 kts | 155° |
| 2026-04-16 06:31 | -11.87716 | -77.19805 | 2808 ft | 175 kts | 154° |
| 2026-04-16 06:32 | -11.88826 | -77.19259 | 2677 ft | 178 kts | 154° |
| 2026-04-16 06:32 | -11.89914 | -77.18719 | 2454 ft | 168 kts | 154° |
| 2026-04-16 06:32 | -11.90939 | -77.18210 | 2231 ft | 159 kts | 154° |
| 2026-04-16 06:32 | -11.91909 | -77.17729 | 2028 ft | 151 kts | 154° |
| 2026-04-16 06:33 | -11.92825 | -77.17273 | 1857 ft | 140 kts | 154° |
| 2026-04-16 06:33 | -11.93654 | -77.16861 | 1666 ft | 127 kts | 154° |
| 2026-04-16 06:33 | -11.94428 | -77.16477 | 1503 ft | 122 kts | 154° |
| 2026-04-16 06:33 | -11.95191 | -77.16098 | 1361 ft | 124 kts | 154° |
| 2026-04-16 06:34 | -11.95970 | -77.15711 | 1195 ft | 124 kts | 155° |
| 2026-04-16 06:34 | -11.96748 | -77.15325 | 1030 ft | 124 kts | 155° |
| 2026-04-16 06:34 | -11.97522 | -77.14941 | 869 ft | 123 kts | 155° |
| 2026-04-16 06:34 | -11.98291 | -77.14559 | 699 ft | 122 kts | 155° |
| 2026-04-16 06:35 | -11.99054 | -77.14180 | 541 ft | 121 kts | 155° |
| 2026-04-16 06:35 | -11.99806 | -77.13808 | 369 ft | 120 kts | 155° |
| 2026-04-16 06:35 | -12.00551 | -77.13427 | 184 ft | 120 kts | 155° |
| 2026-04-16 06:35 | -12.01289 | -77.13068 | 44 ft | 115 kts | 155° |
| 2026-04-16 06:36 | -12.01869 | -77.12782 | 41 ft | 71 kts | 154° |
| 2026-04-16 06:36 | -12.02275 | -77.12582 | 44 ft | 59 kts | 154° |
| 2026-04-16 06:36 | -12.02599 | -77.12418 | 50 ft | 40 kts | 147° |
| 2026-04-16 06:36 | -12.02735 | -77.12285 | 53 ft | 15 kts | 125° |
| 2026-04-16 06:37 | -12.02779 | -77.12219 | 53 ft | 10 kts | 124° |
| 2026-04-16 06:37 | -12.02819 | -77.12160 | 58 ft | 10 kts | 128° |
| 2026-04-16 06:37 | -12.02870 | -77.12115 | 64 ft | 10 kts | 148° |
| 2026-04-16 06:37 | -12.02946 | -77.12065 | 60 ft | 13 kts | 119° |
| 2026-04-16 06:38 | -12.02902 | -77.12019 | 72 ft | 10 kts | 9° |
| 2026-04-16 06:38 | -12.02856 | -77.11970 | 70 ft | 10 kts | 64° |
| 2026-04-16 06:38 | -12.02824 | -77.11921 | 76 ft | 8 kts | 32° |
| 2026-04-16 06:38 | -12.02778 | -77.11925 | 73 ft | 2 kts | 334° |
| 2026-04-16 06:39 | -12.02758 | -77.11935 | 75 ft | 4 kts | 334° |
| 2026-04-16 06:39 | -12.02735 | -77.11952 | 77 ft | 5 kts | 297° |
| 2026-04-16 06:39 | -12.02745 | -77.11994 | 70 ft | 6 kts | 241° |
| 2026-04-16 06:39 | -12.02756 | -77.12016 | 69 ft | 3 kts | 243° |
| 2026-04-16 06:40 | -12.02758 | -77.12021 | 70 ft | 0 kts | 243° |